Site contains unofficial IBTrACS data. Visit the IBTrACS Website to access archived data.

1923 NOT_NAMED (1923239N22130)


IBTrACS version v04r00. Visit IBTrACS website for data access.
Please direct all questions to the IBTrACS Q and A forum

Storm track - Intensity - Wind Radii - Intensity Data - Source Data - All data

Summary Information

Storm ID 1923239N22130
Start Aug 26 22Z
End Aug 30 22Z
ATCF IDs
Track status Best track data.

Storm track plot

Map of storm track

Intensity plots

No Intensity information for this storm


Radial wind information

No radial wind information for this storm


Position and Intensity Table

BASIN ISO_TIME_________ NATURE LAT LON
degrees north degrees east
WP 1923-08-26 22:00:00 NR 22.00 129.80
WP 1923-08-27 00:00:00 NR 22.21 129.59
WP 03:00:00 NR 22.54 129.27
WP 06:00:00 NR 22.89 128.94
WP 09:00:00 NR 23.26 128.61
WP 10:00:00 NR 23.40 128.50
WP 12:00:00 NR 23.68 128.27
WP 15:00:00 NR 24.12 127.94
WP 18:00:00 NR 24.54 127.63
WP 21:00:00 NR 24.90 127.37
WP 22:00:00 NR 25.00 127.30
WP 1923-08-28 00:00:00 NR 25.14 127.18
WP 03:00:00 NR 25.28 127.06
WP 06:00:00 NR 25.38 126.98
WP 09:00:00 NR 25.47 126.92
WP 10:00:00 NR 25.50 126.90
WP 12:00:00 NR 25.60 126.84
WP 15:00:00 NR 25.76 126.77
WP 18:00:00 NR 25.94 126.69
WP 21:00:00 NR 26.13 126.62
WP 22:00:00 NR 26.20 126.60
WP 1923-08-29 00:00:00 NR 26.34 126.54
WP 03:00:00 NR 26.56 126.46
WP 06:00:00 NR 26.79 126.38
WP 09:00:00 NR 27.02 126.32
WP 10:00:00 NR 27.10 126.30
WP 12:00:00 NR 27.25 126.26
WP 15:00:00 NR 27.47 126.22
WP 18:00:00 NR 27.70 126.19
WP 21:00:00 NR 27.92 126.19
WP 22:00:00 NR 28.00 126.20
WP 1923-08-30 00:00:00 NR 28.15 126.21
WP 03:00:00 NR 28.37 126.25
WP 06:00:00 NR 28.60 126.33
WP 09:00:00 NR 28.82 126.45
WP 10:00:00 NR 28.90 126.50
WP 12:00:00 NR 29.05 126.62
WP 15:00:00 NR 29.28 126.82
WP 18:00:00 NR 29.50 127.06
WP 21:00:00 NR 29.73 127.31
WP 22:00:00 NR 29.80 127.40

Source Information

Agency Information
USA
TOKYO
CMA
HKO
NEWDELHI
REUNION
BOM
NADI
WELLINGTON
DS824
TD9636 cons_worldwide_trop_cyclone_18710101-19891231-003:Line=7024
TD9635
NEUMANN
MLC

All available IBTrACS Data

SEASON BASIN SUBBASIN ISO_TIME_________ NATURE LAT LON DIST2LAND LANDFALL IFLAG USA SSHS TD9636 LAT TD9636 LON TD9636 STAGE STORM SPEED STORM DIR
Year degrees north degrees east km km 1 degrees north degrees east kts degrees
1923 WP MM 1923-08-26 22:00:00 NR 22.00 129.80 853 826 __________O___ -1 22.00 129.80 7 9 317
1923 WP MM 1923-08-27 00:00:00 NR 22.21 129.59 826 786 __________P___ -1 22.21 129.59 7 9 318
1923 WP MM 03:00:00 NR 22.54 129.27 786 734 __________P___ -1 22.54 129.27 7 9 318
1923 WP MM 06:00:00 NR 22.89 128.94 734 693 __________P___ -1 22.89 128.94 7 9 320
1923 WP MM 09:00:00 NR 23.26 128.61 693 681 __________P___ -1 23.26 128.61 7 10 322
1923 WP MM 10:00:00 NR 23.40 128.50 681 654 __________O___ -1 23.40 128.50 7 10 323
1923 WP MM 12:00:00 NR 23.68 128.27 654 604 __________P___ -1 23.68 128.27 7 11 325
1923 WP MM 15:00:00 NR 24.12 127.94 604 567 __________P___ -1 24.12 127.94 7 10 326
1923 WP MM 18:00:00 NR 24.54 127.63 567 544 __________P___ -1 24.54 127.63 7 9 326
1923 WP MM 21:00:00 NR 24.90 127.37 544 533 __________P___ -1 24.90 127.37 7 8 327
1923 WP MM 22:00:00 NR 25.00 127.30 533 523 __________O___ -1 25.00 127.30 3 6 324
1923 WP MM 1923-08-28 00:00:00 NR 25.14 127.18 523 513 __________P___ -1 25.14 127.18 3 4 322
1923 WP MM 03:00:00 NR 25.28 127.06 514 503 __________P___ -1 25.28 127.06 3 3 322
1923 WP MM 06:00:00 NR 25.38 126.98 504 494 __________P___ -1 25.38 126.98 3 2 326
1923 WP MM 09:00:00 NR 25.47 126.92 495 495 __________P___ -1 25.47 126.92 3 2 330
1923 WP MM 10:00:00 NR 25.50 126.90 495 486 __________O___ -1 25.50 126.90 4 3 332
1923 WP MM 12:00:00 NR 25.60 126.84 486 486 __________P___ -1 25.60 126.84 4 3 336
1923 WP MM 15:00:00 NR 25.76 126.77 489 480 __________P___ -1 25.76 126.77 4 4 338
1923 WP MM 18:00:00 NR 25.94 126.69 482 477 __________P___ -1 25.94 126.69 4 4 341
1923 WP MM 21:00:00 NR 26.13 126.62 477 477 __________P___ -1 26.13 126.62 4 4 342
1923 WP MM 22:00:00 NR 26.20 126.60 479 473 __________O___ -1 26.20 126.60 4 4 342
1923 WP MM 1923-08-29 00:00:00 NR 26.34 126.54 473 476 __________P___ -1 26.34 126.54 4 5 341
1923 WP MM 03:00:00 NR 26.56 126.46 484 475 __________P___ -1 26.56 126.46 4 5 342
1923 WP MM 06:00:00 NR 26.79 126.38 483 479 __________P___ -1 26.79 126.38 4 5 345
1923 WP MM 09:00:00 NR 27.02 126.32 483 481 __________P___ -1 27.02 126.32 4 5 345
1923 WP MM 10:00:00 NR 27.10 126.30 481 476 __________O___ -1 27.10 126.30 4 5 346
1923 WP MM 12:00:00 NR 27.25 126.26 476 452 __________P___ -1 27.25 126.26 4 5 348
1923 WP MM 15:00:00 NR 27.47 126.22 452 442 __________P___ -1 27.47 126.22 4 5 354
1923 WP MM 18:00:00 NR 27.70 126.19 442 434 __________P___ -1 27.70 126.19 4 5 0
1923 WP MM 21:00:00 NR 27.92 126.19 434 430 __________P___ -1 27.92 126.19 4 5 5
1923 WP MM 22:00:00 NR 28.00 126.20 430 427 __________O___ -1 28.00 126.20 4 5 0
1923 WP MM 1923-08-30 00:00:00 NR 28.15 126.21 427 421 __________P___ -1 28.15 126.21 4 5 7
1923 WP MM 03:00:00 NR 28.37 126.25 427 423 __________P___ -1 28.37 126.25 4 5 13
1923 WP MM 06:00:00 NR 28.60 126.33 423 423 __________P___ -1 28.60 126.33 4 5 21
1923 WP MM 09:00:00 NR 28.82 126.45 439 438 __________P___ -1 28.82 126.45 4 5 27
1923 WP MM 10:00:00 NR 28.90 126.50 438 417 __________O___ -1 28.90 126.50 4 5 32
1923 WP MM 12:00:00 NR 29.05 126.62 417 388 __________P___ -1 29.05 126.62 4 6 37
1923 WP MM 15:00:00 NR 29.28 126.82 388 352 __________P___ -1 29.28 126.82 4 6 41
1923 WP MM 18:00:00 NR 29.50 127.06 352 324 __________P___ -1 29.50 127.06 4 6 44
1923 WP MM 21:00:00 NR 29.73 127.31 324 310 __________P___ -1 29.73 127.31 4 6 45
1923 WP MM 22:00:00 NR 29.80 127.40 310 __________O___ -1 29.80 127.40 7 6 48